createdAt,value
2023-05-19T00:01:55.253Z,44.35
2023-05-19T00:04:31.137Z,44.56
2023-05-19T00:07:03.168Z,44.57
2023-05-19T00:09:34.104Z,44.39
2023-05-19T00:12:05.803Z,44.36
2023-05-19T00:14:36.696Z,44.61
2023-05-19T00:17:08.034Z,44.51
2023-05-19T00:19:40.747Z,44.54
2023-05-19T00:22:11.001Z,44.42
2023-05-19T00:24:41.087Z,44.54
2023-05-19T00:27:11.180Z,44.47
2023-05-19T00:29:42.208Z,44.40
2023-05-19T00:32:12.361Z,44.40
2023-05-19T00:34:45.139Z,44.54
2023-05-19T00:37:15.275Z,44.46
2023-05-19T00:39:45.305Z,44.41
2023-05-19T00:42:15.381Z,44.36
2023-05-19T00:44:45.534Z,44.38
2023-05-19T00:47:15.633Z,44.17
2023-05-19T00:49:48.289Z,44.43
2023-05-19T00:52:18.430Z,44.28
2023-05-19T00:54:49.364Z,44.12
2023-05-19T00:57:19.495Z,44.41
2023-05-19T00:59:49.774Z,44.55
2023-05-19T01:02:19.890Z,44.55
2023-05-19T01:04:55.637Z,44.37
2023-05-19T01:07:26.279Z,44.37
2023-05-19T01:09:56.605Z,44.61
2023-05-19T01:12:26.870Z,44.72
2023-05-19T01:14:57.033Z,44.75
2023-05-19T01:17:34.469Z,44.90
2023-05-19T01:20:17.038Z,44.96
2023-05-19T01:23:16.940Z,44.84
2023-05-19T01:26:14.614Z,44.66
2023-05-19T01:29:11.013Z,44.88
2023-05-19T01:31:47.298Z,44.95
2023-05-19T01:34:19.482Z,44.74
2023-05-19T01:36:52.460Z,45.22
2023-05-19T01:39:23.205Z,45.12
2023-05-19T01:41:55.293Z,45.11
2023-05-19T01:44:26.756Z,45.30
2023-05-19T01:47:00.163Z,45.54
2023-05-19T01:49:30.308Z,45.58
2023-05-19T01:52:00.426Z,45.63
2023-05-19T01:54:30.628Z,45.25
2023-05-19T01:57:10.299Z,45.46
2023-05-19T01:59:51.948Z,45.51
2023-05-19T02:02:33.772Z,45.47
2023-05-19T02:05:12.616Z,45.40
2023-05-19T02:07:47.746Z,45.75
2023-05-19T02:10:25.537Z,45.71
2023-05-19T02:12:57.195Z,45.69
2023-05-19T02:15:30.968Z,45.71
2023-05-19T02:18:06.856Z,45.54
2023-05-19T02:20:36.930Z,45.59
2023-05-19T02:23:07.044Z,45.79
2023-05-19T02:25:37.208Z,45.82
2023-05-19T02:28:07.638Z,45.83
2023-05-19T02:30:37.735Z,45.70
2023-05-19T02:33:11.581Z,45.79
2023-05-19T02:35:41.721Z,45.70
2023-05-19T02:38:11.784Z,45.71
2023-05-19T02:40:41.843Z,45.74
2023-05-19T02:43:12.170Z,45.76
2023-05-19T02:45:42.235Z,45.74
2023-05-19T02:48:15.564Z,45.81
2023-05-19T02:50:45.886Z,45.71
2023-05-19T02:53:15.959Z,45.52
2023-05-19T02:55:46.190Z,45.44
2023-05-19T02:58:16.270Z,45.25
2023-05-19T03:00:48.618Z,45.22
2023-05-19T03:03:21.474Z,45.56
2023-05-19T03:05:52.092Z,45.57
2023-05-19T03:08:22.587Z,45.92
2023-05-19T03:10:52.689Z,45.79
2023-05-19T03:13:22.919Z,45.67
2023-05-19T03:15:53.036Z,45.94
2023-05-19T03:18:26.144Z,45.94
2023-05-19T03:20:56.824Z,46.01
2023-05-19T03:23:27.424Z,46.03
2023-05-19T03:25:57.463Z,46.04
2023-05-19T03:28:27.716Z,46.12
2023-05-19T03:30:57.909Z,46.01
2023-05-19T03:33:34.679Z,46.07
2023-05-19T03:36:05.159Z,46.20
2023-05-19T03:38:39.481Z,46.18
2023-05-19T03:41:09.705Z,45.99
2023-05-19T03:43:39.887Z,46.05
2023-05-19T03:46:11.242Z,46.10
2023-05-19T03:48:46.937Z,46.00
2023-05-19T03:51:17.048Z,46.12
2023-05-19T03:53:48.844Z,46.18
2023-05-19T03:56:19.151Z,46.10
2023-05-19T03:58:49.962Z,46.01
2023-05-19T04:01:20.124Z,45.92
2023-05-19T04:03:52.894Z,45.85
2023-05-19T04:06:23.698Z,45.79
2023-05-19T04:08:53.937Z,45.72
2023-05-19T04:11:24.204Z,45.68
2023-05-19T04:13:55.342Z,45.55
2023-05-19T04:16:25.631Z,45.56
2023-05-19T04:18:58.587Z,45.38
2023-05-19T04:21:28.864Z,45.20
2023-05-19T04:24:00.140Z,45.11
2023-05-19T04:26:34.228Z,45.01
2023-05-19T04:29:05.101Z,44.71
2023-05-19T04:31:37.142Z,44.44
2023-05-19T04:34:12.220Z,44.61
2023-05-19T04:36:42.720Z,44.53
2023-05-19T04:39:13.191Z,44.64
2023-05-19T04:41:46.418Z,44.48
2023-05-19T04:44:18.568Z,44.23
2023-05-19T04:46:54.544Z,44.14
2023-05-19T04:49:29.162Z,43.81
2023-05-19T04:51:59.373Z,43.38
2023-05-19T04:54:33.436Z,42.92
2023-05-19T04:57:04.031Z,43.01
2023-05-19T04:59:36.872Z,42.93
2023-05-19T05:02:10.216Z,43.04
2023-05-19T05:04:44.346Z,42.98
2023-05-19T05:07:14.592Z,42.39
2023-05-19T05:09:45.563Z,42.49
2023-05-19T05:12:17.888Z,42.31
2023-05-19T05:14:50.574Z,42.18
2023-05-19T05:17:23.297Z,42.18
2023-05-19T05:19:56.950Z,42.09
2023-05-19T05:22:27.724Z,41.98
2023-05-19T05:24:58.973Z,41.87
2023-05-19T05:27:29.407Z,41.27
2023-05-19T05:30:00.850Z,41.45
2023-05-19T05:32:32.013Z,41.34
2023-05-19T05:35:09.745Z,41.39
2023-05-19T05:37:39.971Z,40.89
2023-05-19T05:40:14.828Z,40.80
2023-05-19T05:42:47.918Z,40.84
2023-05-19T05:45:19.621Z,40.93
2023-05-19T05:47:51.292Z,40.91
2023-05-19T05:50:24.860Z,40.97
2023-05-19T05:52:58.366Z,40.86
2023-05-19T05:55:31.284Z,40.62
2023-05-19T05:58:03.791Z,40.67
2023-05-19T06:00:34.782Z,40.12
2023-05-19T06:03:06.075Z,39.60
2023-05-19T06:05:39.449Z,39.07
2023-05-19T06:08:09.835Z,39.12
2023-05-19T06:10:41.893Z,38.51
2023-05-19T06:13:13.937Z,38.21
2023-05-19T06:15:44.925Z,37.35
2023-05-19T06:18:29.122Z,37.21
2023-05-19T06:21:02.242Z,37.13
2023-05-19T06:23:33.564Z,36.68
2023-05-19T06:26:03.819Z,36.19
2023-05-19T06:28:37.475Z,35.74
2023-05-19T06:31:08.581Z,35.34
2023-05-19T06:33:50.105Z,35.30
2023-05-19T06:36:22.990Z,34.62
2023-05-19T06:38:54.844Z,34.88
2023-05-19T06:41:28.106Z,34.39
2023-05-19T06:43:58.234Z,33.81
2023-05-19T06:46:28.443Z,33.92
2023-05-19T06:48:58.890Z,33.28
2023-05-19T06:51:33.697Z,33.27
2023-05-19T06:54:03.868Z,33.35
2023-05-19T06:56:34.117Z,33.05
2023-05-19T06:59:04.263Z,33.23
2023-05-19T07:01:38.944Z,33.41
2023-05-19T07:04:09.026Z,33.25
2023-05-19T07:06:41.816Z,33.96
2023-05-19T07:09:12.810Z,34.52
2023-05-19T07:11:44.883Z,34.26
2023-05-19T07:14:17.074Z,34.78
2023-05-19T07:16:47.998Z,34.80
2023-05-19T07:19:19.921Z,34.48
2023-05-19T07:21:53.065Z,34.05
2023-05-19T07:24:23.882Z,34.17
2023-05-19T07:26:55.544Z,33.57
2023-05-19T07:29:25.877Z,33.36
2023-05-19T07:31:58.197Z,33.35
2023-05-19T07:34:28.481Z,33.39
2023-05-19T07:37:02.382Z,33.25
2023-05-19T07:39:32.706Z,33.06
2023-05-19T07:42:07.593Z,32.50
2023-05-19T07:44:41.808Z,31.39
2023-05-19T07:47:14.915Z,31.85
2023-05-19T07:49:45.893Z,31.18
2023-05-19T07:52:21.367Z,30.73
2023-05-19T07:54:55.743Z,29.26
2023-05-19T07:57:25.955Z,28.08
2023-05-19T07:59:56.222Z,28.56
2023-05-19T08:02:26.555Z,28.17
2023-05-19T08:04:56.967Z,28.51
2023-05-19T08:07:29.868Z,26.36
2023-05-19T08:10:00.298Z,26.99
2023-05-19T08:12:30.620Z,26.70
2023-05-19T08:15:01.833Z,26.05
2023-05-19T08:17:32.397Z,25.95
2023-05-19T08:20:04.151Z,25.46
2023-05-19T08:22:37.451Z,25.03
2023-05-19T08:25:08.208Z,25.41
2023-05-19T08:27:38.496Z,24.89
2023-05-19T08:30:10.375Z,24.21
2023-05-19T08:32:41.162Z,24.87
2023-05-19T08:35:12.775Z,25.33
2023-05-19T08:37:46.145Z,24.58
2023-05-19T08:40:21.173Z,24.79
2023-05-19T08:42:51.522Z,25.00
2023-05-19T08:45:21.794Z,24.22
2023-05-19T08:47:54.031Z,24.23
2023-05-19T08:50:31.530Z,24.37
2023-05-19T08:53:28.932Z,24.12
2023-05-19T08:56:10.759Z,23.04
2023-05-19T08:58:44.343Z,22.77
2023-05-19T09:01:17.491Z,22.51
2023-05-19T09:03:50.178Z,22.21
2023-05-19T09:06:21.507Z,21.97
2023-05-19T09:08:54.390Z,22.77
2023-05-19T09:11:24.800Z,22.19
2023-05-19T09:13:55.059Z,21.65
2023-05-19T09:16:27.695Z,21.34
2023-05-19T09:19:00.678Z,20.28
2023-05-19T09:21:33.292Z,19.56
2023-05-19T09:24:10.918Z,19.31
2023-05-19T09:26:51.432Z,19.22
2023-05-19T09:29:31.858Z,19.99
2023-05-19T09:32:05.168Z,20.67
2023-05-19T09:34:35.521Z,21.00
2023-05-19T09:37:05.660Z,22.64
2023-05-19T09:39:38.381Z,23.46
2023-05-19T09:42:10.043Z,22.89
2023-05-19T09:44:40.209Z,22.99
2023-05-19T09:47:13.292Z,22.40
2023-05-19T09:49:50.526Z,21.62
2023-05-19T09:52:20.966Z,21.29
2023-05-19T09:54:56.237Z,21.43
2023-05-19T09:57:30.009Z,21.27
2023-05-19T10:00:01.717Z,22.24
2023-05-19T10:02:35.656Z,22.24
2023-05-19T10:05:10.228Z,22.08
2023-05-19T10:07:41.497Z,22.82
2023-05-19T10:10:16.472Z,23.82
2023-05-19T10:12:47.631Z,23.53
2023-05-19T10:15:22.754Z,22.53
2023-05-19T10:18:00.189Z,22.30
2023-05-19T10:20:30.901Z,22.34
2023-05-19T10:23:03.111Z,22.56
2023-05-19T10:25:38.402Z,22.48
2023-05-19T10:28:16.422Z,22.44
2023-05-19T10:30:49.649Z,22.77
2023-05-19T10:33:25.015Z,22.99
2023-05-19T10:36:14.793Z,23.59
2023-05-19T10:38:51.269Z,22.53
2023-05-19T10:41:36.855Z,23.09
2023-05-19T10:44:24.402Z,23.39
2023-05-19T10:46:56.816Z,22.90
2023-05-19T10:49:31.311Z,23.76
2023-05-19T10:52:01.970Z,24.60
2023-05-19T10:54:59.970Z,24.27
2023-05-19T10:57:33.470Z,24.46
2023-05-19T11:00:11.358Z,24.20
2023-05-19T11:02:56.366Z,22.92
2023-05-19T11:05:33.092Z,23.05
2023-05-19T11:08:04.735Z,21.71
2023-05-19T11:10:35.451Z,21.87
2023-05-19T11:13:08.630Z,22.16
2023-05-19T11:15:39.759Z,22.35
2023-05-19T11:18:10.916Z,23.30
2023-05-19T11:20:42.181Z,23.78
2023-05-19T11:23:13.949Z,23.64
2023-05-19T11:25:46.540Z,22.87
2023-05-19T11:28:26.322Z,22.71
2023-05-19T11:30:59.292Z,22.49
2023-05-19T11:33:30.317Z,22.65
2023-05-19T11:36:00.979Z,22.21
2023-05-19T11:38:31.977Z,22.05
2023-05-19T11:41:03.244Z,22.43
2023-05-19T11:43:36.035Z,21.95
2023-05-19T11:46:06.375Z,21.11
2023-05-19T11:48:37.351Z,20.99
2023-05-19T11:51:10.390Z,21.13
2023-05-19T11:53:40.495Z,21.87
2023-05-19T11:56:12.551Z,22.71
2023-05-19T11:58:45.455Z,23.07
2023-05-19T12:01:15.792Z,22.66
2023-05-19T12:03:46.693Z,22.80
2023-05-19T12:06:17.730Z,22.74
2023-05-19T12:08:48.773Z,23.57
2023-05-19T12:11:20.084Z,22.56
2023-05-19T12:13:54.989Z,22.93
2023-05-19T12:16:25.470Z,22.33
2023-05-19T12:18:55.862Z,22.58
2023-05-19T12:21:26.088Z,23.14
2023-05-19T12:24:07.316Z,22.52
2023-05-19T12:26:38.963Z,22.94
2023-05-19T12:29:12.066Z,23.27
2023-05-19T12:31:42.638Z,24.05
2023-05-19T12:34:15.592Z,23.98
2023-05-19T12:36:46.740Z,23.38
2023-05-19T12:39:18.445Z,22.50
2023-05-19T12:41:49.698Z,20.81
2023-05-19T12:44:22.827Z,20.73
2023-05-19T12:46:56.263Z,21.41
2023-05-19T12:49:26.603Z,22.37
2023-05-19T12:51:57.094Z,23.81
2023-05-19T12:54:27.319Z,23.33
2023-05-19T12:57:00.895Z,23.50
2023-05-19T12:59:38.722Z,23.32
2023-05-19T13:02:09.901Z,24.06
2023-05-19T13:04:40.082Z,25.11
2023-05-19T13:07:10.603Z,24.73
2023-05-19T13:09:40.722Z,23.84
2023-05-19T13:12:11.021Z,23.41
2023-05-19T13:14:44.413Z,23.71
2023-05-19T13:17:14.829Z,24.45
2023-05-19T13:19:49.652Z,24.66
2023-05-19T13:22:25.079Z,25.38
2023-05-19T13:24:59.089Z,25.58
2023-05-19T13:27:29.517Z,25.61
2023-05-19T13:30:04.668Z,25.31
2023-05-19T13:32:38.002Z,25.99
2023-05-19T13:35:09.472Z,26.41
2023-05-19T13:37:39.913Z,26.66
2023-05-19T13:40:11.797Z,27.00
2023-05-19T13:42:42.254Z,26.88
2023-05-19T13:45:15.859Z,27.24
2023-05-19T13:47:46.031Z,26.88
2023-05-19T13:50:16.131Z,27.08
2023-05-19T13:52:46.406Z,27.71
2023-05-19T13:55:16.806Z,27.31
2023-05-19T13:57:47.125Z,27.26
2023-05-19T14:02:54.222Z,26.84
2023-05-19T14:05:24.905Z,27.46
2023-05-19T14:07:55.821Z,27.57
2023-05-19T14:10:26.399Z,27.92
2023-05-19T14:15:38.338Z,27.74
2023-05-19T14:18:08.613Z,28.52
2023-05-19T14:20:38.910Z,28.29
2023-05-19T14:23:24.022Z,28.51
2023-05-19T14:25:54.275Z,28.36
2023-05-19T14:28:26.724Z,28.12
2023-05-19T14:30:59.663Z,28.11
2023-05-19T14:33:34.896Z,28.07
2023-05-19T14:36:06.440Z,28.13
2023-05-19T14:38:36.703Z,28.50
2023-05-19T14:41:07.297Z,28.63
2023-05-19T14:43:37.549Z,28.77
2023-05-19T14:46:10.505Z,28.23
2023-05-19T14:48:40.818Z,28.22
2023-05-19T14:51:11.091Z,28.61
2023-05-19T14:53:41.329Z,28.16
2023-05-19T14:56:14.580Z,28.58
2023-05-19T14:58:44.821Z,28.55
2023-05-19T15:01:17.761Z,28.81
2023-05-19T15:03:48.687Z,28.43
2023-05-19T15:06:19.085Z,28.62
2023-05-19T15:08:49.284Z,28.91
2023-05-19T15:11:19.478Z,29.52
2023-05-19T15:13:49.776Z,29.25
2023-05-19T15:16:22.568Z,29.47
2023-05-19T15:18:53.602Z,29.27
2023-05-19T15:21:23.853Z,28.82
2023-05-19T15:23:55.899Z,28.88
2023-05-19T15:26:28.314Z,29.43
2023-05-19T15:29:00.157Z,29.49
2023-05-19T15:31:34.059Z,29.70
2023-05-19T15:34:05.837Z,29.90
2023-05-19T15:36:36.161Z,29.47
2023-05-19T15:39:06.789Z,29.34
2023-05-19T15:41:37.056Z,29.41
2023-05-19T15:44:08.083Z,29.38
2023-05-19T15:46:41.124Z,29.39
2023-05-19T15:49:12.596Z,29.23
2023-05-19T15:51:43.426Z,29.70
2023-05-19T15:54:13.730Z,29.59
2023-05-19T15:56:44.093Z,29.00
2023-05-19T15:59:14.770Z,29.65
2023-05-19T16:01:53.003Z,29.96
2023-05-19T16:04:23.800Z,29.92
2023-05-19T16:06:54.394Z,29.99
2023-05-19T16:09:25.019Z,29.81
2023-05-19T16:11:55.277Z,29.85
2023-05-19T16:14:31.406Z,29.93
2023-05-19T16:17:04.861Z,30.39
2023-05-19T16:19:35.082Z,30.06
2023-05-19T16:22:07.677Z,29.80
2023-05-19T16:24:37.875Z,29.86
2023-05-19T16:27:08.924Z,30.13
2023-05-19T16:29:42.430Z,30.29
2023-05-19T16:32:16.485Z,30.67
2023-05-19T16:34:47.285Z,30.54
2023-05-19T16:37:23.007Z,30.99
2023-05-19T16:39:53.309Z,30.93
2023-05-19T16:42:23.507Z,30.93
2023-05-19T16:44:53.767Z,30.79
2023-05-19T16:47:41.527Z,31.13
2023-05-19T16:50:13.087Z,31.11
2023-05-19T16:52:43.462Z,31.19
2023-05-19T16:55:17.493Z,31.33
2023-05-19T16:57:47.797Z,31.13
2023-05-19T17:00:18.741Z,31.29
2023-05-19T17:02:51.822Z,31.46
2023-05-19T17:05:22.012Z,31.40
2023-05-19T17:07:52.098Z,31.65
2023-05-19T17:10:22.862Z,31.47
2023-05-19T17:12:56.219Z,31.42
2023-05-19T17:15:27.249Z,31.25
2023-05-19T17:18:00.285Z,31.20
2023-05-19T17:20:30.811Z,31.01
2023-05-19T17:23:00.999Z,31.21
2023-05-19T17:25:31.515Z,31.46
2023-05-19T17:28:01.872Z,31.51
2023-05-19T17:30:32.512Z,31.35
2023-05-19T17:33:06.282Z,30.84
2023-05-19T17:35:46.049Z,31.06
2023-05-19T17:38:16.485Z,31.51
2023-05-19T17:40:50.220Z,31.67
2023-05-19T17:43:20.561Z,31.58
2023-05-19T17:45:52.913Z,31.43
2023-05-19T17:48:29.297Z,31.44
2023-05-19T17:51:03.134Z,31.60
2023-05-19T17:53:37.947Z,31.73
2023-05-19T17:56:15.969Z,32.18
2023-05-19T17:58:51.095Z,31.93
2023-05-19T18:01:33.803Z,32.34
2023-05-19T18:04:17.008Z,32.52
2023-05-19T18:06:48.212Z,32.81
2023-05-19T18:09:23.130Z,33.08
2023-05-19T18:11:55.304Z,33.35
2023-05-19T18:14:27.056Z,33.92
2023-05-19T18:16:57.844Z,33.74
2023-05-19T18:19:30.895Z,33.96
2023-05-19T18:22:01.452Z,34.46
2023-05-19T18:24:31.616Z,34.67
2023-05-19T18:27:02.183Z,34.60
2023-05-19T18:29:34.272Z,34.96
2023-05-19T18:32:04.515Z,34.92
2023-05-19T18:34:37.640Z,34.83
2023-05-19T18:37:13.192Z,35.00
2023-05-19T18:39:44.250Z,35.08
2023-05-19T18:42:14.499Z,35.29
2023-05-19T18:44:46.990Z,35.62
2023-05-19T18:47:23.096Z,35.88
2023-05-19T18:49:56.113Z,35.72
2023-05-19T18:52:27.305Z,35.83
2023-05-19T18:55:04.126Z,36.06
2023-05-19T18:57:37.308Z,36.33
2023-05-19T19:00:09.604Z,36.25
2023-05-19T19:02:41.756Z,36.41
2023-05-19T19:05:18.062Z,36.33
2023-05-19T19:07:49.712Z,36.68
2023-05-19T19:10:26.440Z,36.82
2023-05-19T19:12:58.017Z,36.82
2023-05-19T19:15:31.366Z,36.70
2023-05-19T19:18:02.538Z,36.95
2023-05-19T19:20:35.606Z,37.12
2023-05-19T19:23:06.979Z,37.30
2023-05-19T19:25:37.233Z,37.22
2023-05-19T19:28:07.599Z,37.42
2023-05-19T19:30:41.351Z,37.64
2023-05-19T19:33:11.567Z,37.64
2023-05-19T19:35:44.550Z,37.72
2023-05-19T19:38:14.823Z,37.75
2023-05-19T19:40:45.168Z,37.99
2023-05-19T19:43:15.333Z,37.90
2023-05-19T19:45:45.455Z,38.10
2023-05-19T19:48:15.633Z,38.27
2023-05-19T19:50:52.987Z,38.43
2023-05-19T19:53:23.154Z,38.45
2023-05-19T19:56:00.261Z,38.83
2023-05-19T19:58:31.246Z,38.78
2023-05-19T20:01:02.956Z,38.96
2023-05-19T20:03:33.675Z,38.90
2023-05-19T20:06:07.774Z,38.88
2023-05-19T20:08:52.871Z,38.82
2023-05-19T20:11:27.010Z,39.15
2023-05-19T20:13:57.254Z,39.06
2023-05-19T20:16:31.808Z,39.34
2023-05-19T20:19:04.677Z,39.39
2023-05-19T20:24:25.325Z,39.77
2023-05-19T20:26:55.787Z,39.58
2023-05-19T20:29:26.096Z,39.80
2023-05-19T20:31:57.369Z,39.80
2023-05-19T20:34:27.815Z,39.82
2023-05-19T20:37:00.770Z,40.03
2023-05-19T20:39:31.369Z,39.92
2023-05-19T20:42:04.408Z,40.07
2023-05-19T20:44:34.628Z,40.13
2023-05-19T20:47:04.956Z,40.34
2023-05-19T20:49:35.413Z,40.54
2023-05-19T20:52:11.012Z,40.58
2023-05-19T20:54:44.393Z,40.84
2023-05-19T20:57:15.076Z,41.04
2023-05-19T20:59:45.218Z,40.89
2023-05-19T21:02:15.434Z,41.08
2023-05-19T21:04:46.314Z,41.08
2023-05-19T21:07:24.537Z,41.29
2023-05-19T21:09:54.757Z,41.49
2023-05-19T21:12:25.476Z,41.51
2023-05-19T21:14:55.571Z,41.38
2023-05-19T21:17:25.779Z,41.41
2023-05-19T21:19:59.657Z,41.82
2023-05-19T21:22:32.528Z,41.99
2023-05-19T21:25:02.870Z,42.15
2023-05-19T21:27:35.833Z,42.10
2023-05-19T21:30:06.824Z,42.09
2023-05-19T21:32:39.711Z,42.10
2023-05-19T21:35:12.728Z,42.38
2023-05-19T21:37:48.241Z,42.34
2023-05-19T21:40:18.737Z,42.43
2023-05-19T21:42:49.032Z,42.58
2023-05-19T21:45:20.340Z,42.82
2023-05-19T21:47:51.950Z,42.73
2023-05-19T21:50:22.144Z,42.98
2023-05-19T21:52:54.915Z,43.12
2023-05-19T21:55:25.284Z,43.07
2023-05-19T21:57:55.401Z,42.96
2023-05-19T22:00:25.899Z,43.28
2023-05-19T22:02:56.093Z,43.23
2023-05-19T22:05:26.314Z,43.43
2023-05-19T22:07:59.241Z,43.59
2023-05-19T22:10:29.520Z,43.46
2023-05-19T22:12:59.883Z,43.60
2023-05-19T22:15:30.099Z,43.72
2023-05-19T22:18:00.266Z,44.12
2023-05-19T22:20:30.536Z,43.92
2023-05-19T22:23:04.233Z,43.77
2023-05-19T22:25:34.643Z,43.82
2023-05-19T22:28:06.103Z,44.09
2023-05-19T22:30:38.493Z,44.32
2023-05-19T22:33:10.127Z,44.48
2023-05-19T22:35:40.490Z,44.51
2023-05-19T22:38:13.249Z,44.60
2023-05-19T22:40:43.640Z,44.55
2023-05-19T22:43:13.944Z,44.65
2023-05-19T22:45:44.173Z,44.76
2023-05-19T22:48:14.294Z,44.68
2023-05-19T22:50:44.492Z,44.81
2023-05-19T22:53:17.371Z,45.08
2023-05-19T22:55:47.666Z,44.90
2023-05-19T22:58:17.730Z,45.07
2023-05-19T23:00:47.919Z,45.17
2023-05-19T23:03:18.420Z,45.61
2023-05-19T23:05:48.694Z,45.56
2023-05-19T23:08:21.393Z,45.50
2023-05-19T23:10:51.632Z,45.50
2023-05-19T23:13:21.795Z,45.68
2023-05-19T23:15:52.077Z,45.69
2023-05-19T23:18:22.167Z,45.82
2023-05-19T23:20:52.286Z,46.09
2023-05-19T23:23:25.036Z,46.12
2023-05-19T23:25:55.120Z,45.95
2023-05-19T23:28:25.310Z,46.16
2023-05-19T23:30:56.511Z,46.42
2023-05-19T23:33:26.718Z,46.58
2023-05-19T23:35:57.258Z,46.67
2023-05-19T23:38:29.986Z,46.66
2023-05-19T23:41:00.065Z,46.76
2023-05-19T23:43:30.369Z,46.82
2023-05-19T23:46:00.586Z,47.08
2023-05-19T23:48:31.484Z,47.17
2023-05-19T23:51:01.769Z,47.45
2023-05-19T23:53:34.558Z,47.45
2023-05-19T23:56:04.636Z,47.33
2023-05-19T23:58:34.917Z,47.35
